ADDS TAF Board (Experimental) INFO

IDs: Format: Expanded Condensed

Updated at: 0701 UTC 03 Sep 2014

KSTL - St Louis/Lambert Int, MO, US

Issued at 0520 UTC 03 Sep 2014
Time0651Z03/08Z03/09Z03/10Z03/11Z03/12Z03/13Z03/14Z03/15Z03/16Z03/17Z03/18Z03/19Z03/20Z
TypeOBSPRVLPRVLPRVLPRVLPRVLPRVLPRVLPRVLPRVLPRVLPRVLPRVLPRVL
VIS10>6>64444>6>6>6>6>6>6>6
CIG--------------250250250250250250250
CoverCLRFEWFEWSKCSKCSKCSKCBKNBKNBKNBKNBKNBKNBKN
FltCat--VFRVFRMVFRMVFRMVFRMVFRVFRVFRVFRVFRVFRVFRVFR
WX------BRBRBRBR--------------
WDirVRBVRBVRBVRBVRBVRBVRB160160160160160160160
WSpd00022228888888
WGst----------------------------
R06/24
XWndVRBVRBVRBVRBVRBVRBVRB-8-8-8-8-8-8-8
HWndVRBVRBVRBVRBVRBVRBVRB-1-1-1-1-1-1-1
R11/29
XWndVRBVRBVRBVRBVRBVRBVRB-5-5-5-5-5-5-5
HWndVRBVRBVRBVRBVRBVRBVRB6666666
R12/30
XWndVRBVRBVRBVRBVRBVRBVRB-5-5-5-5-5-5-5
HWndVRBVRBVRBVRBVRBVRBVRB6666666
Raw TAF
KSTL 030520Z 0306/0412 00000KT P6SM FEW200
  FM031000 VRB02KT 4SM BR SKC
  FM031400 16008KT P6SM SCT040 BKN250


Raw METAR
KSTL 030651Z 00000KT 10SM CLR 22/20 A3001 RMK AO2 SLP151 T02170200

TAF Board Legend

Hazard VFR MVFR IFR LIFR
Visibility (sm) >5 3≤X≤5 1≤X<3 <1
Ceiling (100 ft) >30 10≤X≤30 5≤X<10 <5
Wind Speed (kt) <10 10≤X<20 20≤X<30 ≥30
Wind Gust (kt) <15 15≤X<25 25≤X<35 ≥35
Weather No Wx Reported VCTS,-TS,-FZRA TS,FZRA +TS,+FZRA


Page loaded:  07:01 UTC  |   12:01 AM Pacific  |   01:01 AM Mountain  |   02:01 AM Central  |   03:01 AM Eastern

 

ADVISORIES

FORECASTS

FORECASTS

OBSERVATIONS

USER TOOLS

ABOUT US